createdAt,value
2022-09-07T00:04:34.401Z,7.00
2022-09-07T00:09:37.727Z,5.38
2022-09-07T00:14:42.191Z,5.97
2022-09-07T00:19:45.355Z,5.75
2022-09-07T00:24:48.569Z,4.78
2022-09-07T00:29:53.070Z,4.30
2022-09-07T00:34:56.039Z,5.03
2022-09-07T00:39:59.011Z,4.50
2022-09-07T00:45:10.255Z,4.30
2022-09-07T00:50:20.186Z,3.97
2022-09-07T00:55:23.682Z,3.88
2022-09-07T01:00:28.466Z,4.00
2022-09-07T01:05:35.739Z,3.10
2022-09-07T01:10:39.519Z,3.15
2022-09-07T01:15:50.992Z,2.95
2022-09-07T01:21:18.047Z,2.88
2022-09-07T01:26:43.785Z,3.25
2022-09-07T01:32:01.471Z,3.80
2022-09-07T01:37:14.111Z,4.88
2022-09-07T01:42:22.067Z,6.85
2022-09-07T01:47:32.573Z,5.68
2022-09-07T01:52:42.474Z,4.50
2022-09-07T01:57:52.541Z,2.85
2022-09-07T02:03:02.458Z,3.10
2022-09-07T02:08:11.779Z,2.90
2022-09-07T02:13:19.561Z,2.42
2022-09-07T02:18:26.991Z,2.13
2022-09-07T02:23:34.378Z,2.70
2022-09-07T02:28:38.920Z,2.20
2022-09-07T02:33:44.463Z,2.00
2022-09-07T02:38:47.753Z,2.50
2022-09-07T02:43:50.746Z,2.40
2022-09-07T02:49:02.285Z,1.90
2022-09-07T02:54:17.843Z,2.20
2022-09-07T02:59:41.829Z,2.05
2022-09-07T03:04:52.233Z,2.10
2022-09-07T03:09:58.441Z,1.50
2022-09-07T03:15:01.446Z,2.38
2022-09-07T03:20:06.580Z,3.00
2022-09-07T03:25:10.599Z,2.92
2022-09-07T03:30:14.798Z,2.75
2022-09-07T03:35:19.633Z,2.75
2022-09-07T03:40:22.778Z,2.40
2022-09-07T03:45:25.832Z,2.58
2022-09-07T03:50:30.369Z,2.60
2022-09-07T03:55:33.342Z,2.03
2022-09-07T04:00:36.509Z,2.58
2022-09-07T04:05:41.102Z,2.42
2022-09-07T04:10:44.407Z,2.25
2022-09-07T04:15:50.939Z,2.83
2022-09-07T04:21:00.028Z,3.35
2022-09-07T04:26:03.024Z,3.50
2022-09-07T04:31:06.273Z,3.13
2022-09-07T04:36:12.240Z,3.47
2022-09-07T04:41:16.913Z,3.90
2022-09-07T04:46:22.950Z,4.07
2022-09-07T04:51:29.123Z,4.25
2022-09-07T04:56:32.898Z,3.95
2022-09-07T05:01:35.992Z,5.38
2022-09-07T05:06:40.557Z,7.00
2022-09-07T05:11:43.516Z,6.25
2022-09-07T05:16:46.551Z,7.45
2022-09-07T05:21:51.023Z,7.43
2022-09-07T05:26:54.552Z,7.63
2022-09-07T05:31:58.030Z,8.38
2022-09-07T05:37:03.149Z,7.55
2022-09-07T05:42:06.477Z,8.25
2022-09-07T05:47:09.637Z,10.27
2022-09-07T05:52:14.493Z,10.40
2022-09-07T05:57:17.445Z,10.30
2022-09-07T06:02:20.721Z,10.35
2022-09-07T06:07:25.387Z,10.95
2022-09-07T06:12:28.499Z,10.32
2022-09-07T06:17:31.737Z,10.30
2022-09-07T06:22:37.827Z,10.07
2022-09-07T06:27:40.778Z,10.68
2022-09-07T06:32:44.158Z,10.82
2022-09-07T06:37:49.082Z,10.98
2022-09-07T06:42:52.117Z,10.60
2022-09-07T06:47:55.674Z,9.38
2022-09-07T06:58:24.805Z,9.68
2022-09-07T07:03:29.663Z,9.30
2022-09-07T07:08:34.491Z,10.05
2022-09-07T07:13:38.594Z,9.73
2022-09-07T07:18:42.734Z,10.90
2022-09-07T07:23:51.091Z,11.25
2022-09-07T07:29:03.897Z,12.15
2022-09-07T07:34:07.531Z,12.05
2022-09-07T07:44:35.126Z,18.60
2022-09-07T07:49:38.436Z,16.95
2022-09-07T07:54:43.610Z,18.70
2022-09-07T07:59:46.982Z,15.60
2022-09-07T08:04:50.252Z,13.60
2022-09-07T08:09:54.729Z,15.18
2022-09-07T08:14:57.963Z,14.02
2022-09-07T08:20:00.918Z,14.48
2022-09-07T08:25:07.063Z,14.88
2022-09-07T08:30:11.483Z,13.95
2022-09-07T08:35:14.528Z,14.68
2022-09-07T08:40:20.706Z,13.43
2022-09-07T08:45:30.102Z,12.27
2022-09-07T08:50:39.780Z,12.82
2022-09-07T08:55:52.426Z,11.32
2022-09-07T09:01:30.708Z,11.50
2022-09-07T09:06:28.799Z,11.70
2022-09-07T09:11:44.861Z,10.80
2022-09-07T09:16:53.025Z,11.18
2022-09-07T09:22:08.785Z,9.55
2022-09-07T09:27:13.399Z,8.32
2022-09-07T09:32:33.448Z,7.60
2022-09-07T09:37:37.762Z,6.95
2022-09-07T09:42:42.067Z,7.05
2022-09-07T09:47:50.745Z,6.50
2022-09-07T09:52:55.530Z,5.15
2022-09-07T10:08:57.748Z,4.00
2022-09-07T10:14:02.079Z,4.28
2022-09-07T10:19:05.033Z,4.55
2022-09-07T10:24:16.820Z,3.42
2022-09-07T10:29:28.786Z,3.42
2022-09-07T10:34:40.795Z,3.90
2022-09-07T10:39:51.171Z,2.60
2022-09-07T10:45:06.224Z,3.20
2022-09-07T10:50:29.218Z,2.80
2022-09-07T10:55:35.162Z,2.42
2022-09-07T11:00:51.516Z,2.78
2022-09-07T11:06:14.434Z,2.53
2022-09-07T11:12:00.624Z,2.53
2022-09-07T11:16:54.326Z,2.40
2022-09-07T11:22:02.133Z,2.60
2022-09-07T11:27:12.321Z,2.70
2022-09-07T11:32:22.315Z,2.22
2022-09-07T11:37:31.581Z,2.13
2022-09-07T11:42:43.829Z,1.67
2022-09-07T11:47:52.920Z,1.77
2022-09-07T11:53:01.888Z,1.75
2022-09-07T11:58:23.619Z,1.23
2022-09-07T12:03:55.219Z,1.23
2022-09-07T12:09:12.051Z,1.60
2022-09-07T12:14:29.224Z,1.13
2022-09-07T12:19:33.614Z,1.50
2022-09-07T12:24:43.585Z,1.10
2022-09-07T12:29:47.283Z,1.10
2022-09-07T12:34:58.000Z,0.82
2022-09-07T12:40:34.263Z,1.00
2022-09-07T12:45:52.786Z,1.10
2022-09-07T12:51:03.726Z,1.30
2022-09-07T12:56:24.892Z,1.30
2022-09-07T13:01:37.649Z,1.30
2022-09-07T13:07:07.560Z,1.40
2022-09-07T13:17:58.310Z,1.40
2022-09-07T13:23:25.072Z,1.30
2022-09-07T13:28:51.984Z,1.30
2022-09-07T13:33:55.585Z,1.30
2022-09-07T13:39:00.319Z,1.73
2022-09-07T13:44:04.927Z,1.58
2022-09-07T13:49:18.720Z,1.95
2022-09-07T13:54:30.056Z,1.35
2022-09-07T13:59:36.281Z,2.00
2022-09-07T14:04:44.337Z,1.77
2022-09-07T14:09:48.930Z,1.60
2022-09-07T14:15:10.607Z,1.10
2022-09-07T14:20:16.051Z,1.65
2022-09-07T14:25:22.225Z,1.30
2022-09-07T14:30:29.074Z,1.30
2022-09-07T14:35:34.950Z,1.30
2022-09-07T14:40:39.535Z,1.58
2022-09-07T14:45:43.996Z,1.40
2022-09-07T14:51:00.990Z,1.35
2022-09-07T14:56:21.057Z,1.10
2022-09-07T15:01:41.293Z,1.02
2022-09-07T15:07:02.231Z,1.25
2022-09-07T15:12:18.564Z,1.50
2022-09-07T15:22:49.532Z,1.17
2022-09-07T15:27:55.147Z,1.30
2022-09-07T15:32:58.382Z,1.48
2022-09-07T15:38:02.773Z,1.10
2022-09-07T15:43:19.994Z,1.38
2022-09-07T15:48:25.694Z,1.33
2022-09-07T15:58:57.268Z,1.20
2022-09-07T16:04:01.392Z,1.30
2022-09-07T16:09:07.325Z,1.15
2022-09-07T16:14:12.417Z,1.08
2022-09-07T16:19:20.061Z,1.10
2022-09-07T16:24:23.362Z,1.70
2022-09-07T16:29:28.001Z,0.88
2022-09-07T16:34:30.876Z,1.25
2022-09-07T16:39:33.924Z,1.27
2022-09-07T16:44:38.253Z,1.50
2022-09-07T16:49:41.541Z,1.40
2022-09-07T16:54:44.572Z,1.27
2022-09-07T16:59:49.220Z,1.30
2022-09-07T17:04:52.182Z,1.30
2022-09-07T17:09:55.559Z,1.30
2022-09-07T17:14:59.805Z,1.30
2022-09-07T17:20:03.876Z,1.50
2022-09-07T17:25:07.828Z,1.27
2022-09-07T17:30:13.658Z,1.17
2022-09-07T17:35:16.742Z,1.10
2022-09-07T17:40:19.955Z,1.20
2022-09-07T17:45:24.306Z,1.45
2022-09-07T17:50:27.290Z,1.65
2022-09-07T17:55:31.659Z,1.35
2022-09-07T18:00:36.625Z,1.50
2022-09-07T18:05:39.755Z,1.50
2022-09-07T18:16:15.146Z,1.50
2022-09-07T18:21:21.137Z,1.30
2022-09-07T18:26:24.971Z,1.50
2022-09-07T18:31:30.226Z,1.40
2022-09-07T18:36:34.091Z,1.20
2022-09-07T18:41:40.669Z,1.48
2022-09-07T18:46:45.254Z,1.80
2022-09-07T18:57:11.650Z,1.70
2022-09-07T19:02:16.136Z,1.52
2022-09-07T19:07:20.371Z,1.42
2022-09-07T19:12:24.355Z,1.70
2022-09-07T19:17:28.913Z,1.90
2022-09-07T19:22:32.146Z,2.50
2022-09-07T19:27:37.944Z,2.58
2022-09-07T19:32:42.229Z,2.08
2022-09-07T19:37:45.134Z,2.10
2022-09-07T19:42:48.068Z,2.10
2022-09-07T19:47:52.539Z,2.05
2022-09-07T19:52:55.432Z,2.28
2022-09-07T19:57:58.862Z,2.33
2022-09-07T20:03:03.257Z,2.35
2022-09-07T20:08:06.796Z,2.53
2022-09-07T20:13:10.171Z,2.03
2022-09-07T20:18:14.418Z,2.05
2022-09-07T20:23:17.566Z,2.53
2022-09-07T20:28:20.525Z,2.10
2022-09-07T20:33:25.099Z,3.10
2022-09-07T20:38:28.034Z,2.75
2022-09-07T20:43:31.207Z,2.78
2022-09-07T20:48:37.102Z,2.35
2022-09-07T20:53:40.949Z,2.17
2022-09-07T20:58:44.847Z,2.65
2022-09-07T21:03:51.046Z,1.70
2022-09-07T21:08:54.601Z,3.40
2022-09-07T21:13:59.354Z,2.65
2022-09-07T21:19:05.293Z,2.97
2022-09-07T21:24:15.478Z,2.78
2022-09-07T21:29:20.581Z,3.33
2022-09-07T21:34:25.315Z,2.95
2022-09-07T21:39:28.276Z,3.25
2022-09-07T21:44:31.301Z,3.22
2022-09-07T21:49:35.606Z,3.38
2022-09-07T21:54:39.174Z,3.60
2022-09-07T21:59:42.403Z,2.90
2022-09-07T22:04:46.719Z,2.88
2022-09-07T22:09:49.596Z,3.00
2022-09-07T22:14:52.470Z,2.92
2022-09-07T22:19:56.788Z,2.67
2022-09-07T22:24:59.675Z,3.00
2022-09-07T22:30:02.583Z,2.67
2022-09-07T22:35:08.129Z,2.92
2022-09-07T22:40:14.811Z,3.10
2022-09-07T22:45:17.971Z,3.05
2022-09-07T22:50:22.257Z,3.00
2022-09-07T22:55:25.143Z,2.95
2022-09-07T23:00:28.131Z,2.72
2022-09-07T23:05:37.580Z,2.80
2022-09-07T23:10:40.492Z,2.92
2022-09-07T23:15:44.048Z,3.28
2022-09-07T23:20:48.427Z,3.22
2022-09-07T23:25:51.309Z,3.25
2022-09-07T23:30:54.808Z,4.20
2022-09-07T23:36:01.039Z,3.53
2022-09-07T23:41:04.336Z,3.97
2022-09-07T23:46:07.652Z,4.03
2022-09-07T23:51:11.969Z,4.50
2022-09-07T23:56:15.079Z,5.03
